sensor_id;sensor_type;location;lat;lon;timestamp;P1;durP1;ratioP1;P2;durP2;ratioP2
19347;SDS011;9810;52.480;9.806;2022-08-19T00:01:55;9.23;;;6.70;;
19347;SDS011;9810;52.480;9.806;2022-08-19T00:04:25;10.73;;;6.37;;
19347;SDS011;9810;52.480;9.806;2022-08-19T00:06:54;12.43;;;6.82;;
19347;SDS011;9810;52.480;9.806;2022-08-19T00:09:21;12.03;;;6.60;;
19347;SDS011;9810;52.480;9.806;2022-08-19T00:11:50;11.43;;;6.40;;
19347;SDS011;9810;52.480;9.806;2022-08-19T00:14:22;9.20;;;6.13;;
19347;SDS011;9810;52.480;9.806;2022-08-19T00:16:50;8.13;;;6.17;;
19347;SDS011;9810;52.480;9.806;2022-08-19T00:19:19;9.60;;;6.13;;
19347;SDS011;9810;52.480;9.806;2022-08-19T00:21:47;10.27;;;6.30;;
19347;SDS011;9810;52.480;9.806;2022-08-19T00:24:14;10.73;;;6.30;;
19347;SDS011;9810;52.480;9.806;2022-08-19T00:26:42;14.27;;;6.93;;
19347;SDS011;9810;52.480;9.806;2022-08-19T00:29:11;8.67;;;6.30;;
19347;SDS011;9810;52.480;9.806;2022-08-19T00:31:41;10.43;;;6.30;;
19347;SDS011;9810;52.480;9.806;2022-08-19T00:34:10;9.57;;;6.57;;
19347;SDS011;9810;52.480;9.806;2022-08-19T00:36:38;10.40;;;6.87;;
19347;SDS011;9810;52.480;9.806;2022-08-19T00:39:06;14.77;;;7.73;;
19347;SDS011;9810;52.480;9.806;2022-08-19T00:41:34;9.63;;;6.80;;
19347;SDS011;9810;52.480;9.806;2022-08-19T00:44:02;8.07;;;7.10;;
19347;SDS011;9810;52.480;9.806;2022-08-19T00:46:33;12.13;;;7.17;;
19347;SDS011;9810;52.480;9.806;2022-08-19T00:49:05;11.10;;;7.33;;
19347;SDS011;9810;52.480;9.806;2022-08-19T00:51:36;13.63;;;7.73;;
19347;SDS011;9810;52.480;9.806;2022-08-19T00:54:04;10.90;;;7.33;;
19347;SDS011;9810;52.480;9.806;2022-08-19T00:56:31;10.70;;;7.43;;
19347;SDS011;9810;52.480;9.806;2022-08-19T00:59:00;13.23;;;7.47;;
19347;SDS011;9810;52.480;9.806;2022-08-19T01:01:28;9.87;;;6.80;;
19347;SDS011;9810;52.480;9.806;2022-08-19T01:03:57;10.20;;;6.70;;
19347;SDS011;9810;52.480;9.806;2022-08-19T01:06:26;11.00;;;7.00;;
19347;SDS011;9810;52.480;9.806;2022-08-19T01:08:55;7.43;;;6.57;;
19347;SDS011;9810;52.480;9.806;2022-08-19T01:11:23;10.97;;;7.27;;
19347;SDS011;9810;52.480;9.806;2022-08-19T01:13:50;10.67;;;7.10;;
19347;SDS011;9810;52.480;9.806;2022-08-19T01:16:20;10.43;;;7.07;;
19347;SDS011;9810;52.480;9.806;2022-08-19T01:18:50;10.63;;;6.87;;
19347;SDS011;9810;52.480;9.806;2022-08-19T01:21:18;9.43;;;6.13;;
19347;SDS011;9810;52.480;9.806;2022-08-19T01:23:51;10.80;;;6.20;;
19347;SDS011;9810;52.480;9.806;2022-08-19T01:26:20;11.33;;;7.63;;
19347;SDS011;9810;52.480;9.806;2022-08-19T01:28:50;10.00;;;7.47;;
19347;SDS011;9810;52.480;9.806;2022-08-19T01:31:19;11.53;;;6.93;;
19347;SDS011;9810;52.480;9.806;2022-08-19T01:33:49;13.97;;;7.90;;
19347;SDS011;9810;52.480;9.806;2022-08-19T01:36:21;13.47;;;7.80;;
19347;SDS011;9810;52.480;9.806;2022-08-19T01:38:53;11.20;;;7.60;;
19347;SDS011;9810;52.480;9.806;2022-08-19T01:41:21;16.93;;;8.10;;
19347;SDS011;9810;52.480;9.806;2022-08-19T01:43:48;9.43;;;7.23;;
19347;SDS011;9810;52.480;9.806;2022-08-19T01:46:17;10.97;;;7.63;;
19347;SDS011;9810;52.480;9.806;2022-08-19T01:48:45;9.50;;;6.97;;
19347;SDS011;9810;52.480;9.806;2022-08-19T01:51:13;11.77;;;7.03;;
19347;SDS011;9810;52.480;9.806;2022-08-19T01:53:41;15.70;;;7.63;;
19347;SDS011;9810;52.480;9.806;2022-08-19T01:56:10;12.90;;;7.90;;
19347;SDS011;9810;52.480;9.806;2022-08-19T01:58:38;8.77;;;7.87;;
19347;SDS011;9810;52.480;9.806;2022-08-19T02:01:10;13.77;;;8.77;;
19347;SDS011;9810;52.480;9.806;2022-08-19T02:03:37;11.47;;;7.73;;
19347;SDS011;9810;52.480;9.806;2022-08-19T02:06:05;10.83;;;8.63;;
19347;SDS011;9810;52.480;9.806;2022-08-19T02:08:33;11.37;;;8.53;;
19347;SDS011;9810;52.480;9.806;2022-08-19T02:11:02;14.03;;;9.30;;
19347;SDS011;9810;52.480;9.806;2022-08-19T02:13:32;11.23;;;8.13;;
19347;SDS011;9810;52.480;9.806;2022-08-19T02:16:00;12.73;;;8.43;;
19347;SDS011;9810;52.480;9.806;2022-08-19T02:18:28;14.40;;;8.60;;
19347;SDS011;9810;52.480;9.806;2022-08-19T02:20:55;13.60;;;8.93;;
19347;SDS011;9810;52.480;9.806;2022-08-19T02:23:24;13.20;;;8.90;;
19347;SDS011;9810;52.480;9.806;2022-08-19T02:25:52;13.63;;;8.90;;
19347;SDS011;9810;52.480;9.806;2022-08-19T02:28:19;15.00;;;8.50;;
19347;SDS011;9810;52.480;9.806;2022-08-19T02:30:48;14.00;;;8.90;;
19347;SDS011;9810;52.480;9.806;2022-08-19T02:33:15;12.90;;;8.50;;
19347;SDS011;9810;52.480;9.806;2022-08-19T02:35:43;12.33;;;8.13;;
19347;SDS011;9810;52.480;9.806;2022-08-19T02:38:12;14.87;;;8.23;;
19347;SDS011;9810;52.480;9.806;2022-08-19T02:40:52;13.80;;;8.77;;
19347;SDS011;9810;52.480;9.806;2022-08-19T02:43:19;17.03;;;8.37;;
19347;SDS011;9810;52.480;9.806;2022-08-19T02:45:49;10.97;;;8.17;;
19347;SDS011;9810;52.480;9.806;2022-08-19T02:48:17;11.53;;;7.87;;
19347;SDS011;9810;52.480;9.806;2022-08-19T02:50:45;13.33;;;8.70;;
19347;SDS011;9810;52.480;9.806;2022-08-19T02:53:13;12.67;;;8.27;;
19347;SDS011;9810;52.480;9.806;2022-08-19T02:55:44;15.30;;;8.80;;
19347;SDS011;9810;52.480;9.806;2022-08-19T02:58:13;11.30;;;8.33;;
19347;SDS011;9810;52.480;9.806;2022-08-19T03:00:41;12.73;;;8.50;;
19347;SDS011;9810;52.480;9.806;2022-08-19T03:03:11;14.30;;;7.90;;
19347;SDS011;9810;52.480;9.806;2022-08-19T03:05:39;13.57;;;8.03;;
19347;SDS011;9810;52.480;9.806;2022-08-19T03:08:06;15.93;;;9.23;;
19347;SDS011;9810;52.480;9.806;2022-08-19T03:10:39;11.57;;;8.70;;
19347;SDS011;9810;52.480;9.806;2022-08-19T03:13:09;12.83;;;8.83;;
19347;SDS011;9810;52.480;9.806;2022-08-19T03:15:39;16.10;;;9.17;;
19347;SDS011;9810;52.480;9.806;2022-08-19T03:18:07;12.03;;;8.47;;
19347;SDS011;9810;52.480;9.806;2022-08-19T03:20:40;10.83;;;7.40;;
19347;SDS011;9810;52.480;9.806;2022-08-19T03:23:08;10.87;;;8.23;;
19347;SDS011;9810;52.480;9.806;2022-08-19T03:25:38;14.13;;;8.00;;
19347;SDS011;9810;52.480;9.806;2022-08-19T03:28:08;11.43;;;8.60;;
19347;SDS011;9810;52.480;9.806;2022-08-19T03:30:36;15.93;;;8.50;;
19347;SDS011;9810;52.480;9.806;2022-08-19T03:33:04;14.07;;;9.37;;
19347;SDS011;9810;52.480;9.806;2022-08-19T03:35:32;13.03;;;8.87;;
19347;SDS011;9810;52.480;9.806;2022-08-19T03:38:03;17.53;;;8.27;;
19347;SDS011;9810;52.480;9.806;2022-08-19T03:40:31;15.50;;;8.90;;
19347;SDS011;9810;52.480;9.806;2022-08-19T03:43:02;11.47;;;8.33;;
19347;SDS011;9810;52.480;9.806;2022-08-19T03:45:30;11.27;;;8.23;;
19347;SDS011;9810;52.480;9.806;2022-08-19T03:47:57;13.20;;;7.90;;
19347;SDS011;9810;52.480;9.806;2022-08-19T03:50:25;11.57;;;7.70;;
19347;SDS011;9810;52.480;9.806;2022-08-19T03:52:52;13.67;;;8.60;;
19347;SDS011;9810;52.480;9.806;2022-08-19T03:55:22;11.30;;;7.60;;
19347;SDS011;9810;52.480;9.806;2022-08-19T03:57:49;10.73;;;8.13;;
19347;SDS011;9810;52.480;9.806;2022-08-19T04:00:16;14.40;;;8.10;;
19347;SDS011;9810;52.480;9.806;2022-08-19T04:02:44;17.77;;;8.60;;
19347;SDS011;9810;52.480;9.806;2022-08-19T04:05:11;9.57;;;7.33;;
19347;SDS011;9810;52.480;9.806;2022-08-19T04:07:39;12.33;;;7.90;;
19347;SDS011;9810;52.480;9.806;2022-08-19T04:10:07;14.23;;;8.00;;
19347;SDS011;9810;52.480;9.806;2022-08-19T04:12:36;11.77;;;8.47;;
19347;SDS011;9810;52.480;9.806;2022-08-19T04:15:04;14.00;;;8.00;;
19347;SDS011;9810;52.480;9.806;2022-08-19T04:17:33;10.40;;;7.50;;
19347;SDS011;9810;52.480;9.806;2022-08-19T04:20:00;10.17;;;7.13;;
19347;SDS011;9810;52.480;9.806;2022-08-19T04:22:28;9.63;;;7.70;;
19347;SDS011;9810;52.480;9.806;2022-08-19T04:24:55;13.60;;;8.43;;
19347;SDS011;9810;52.480;9.806;2022-08-19T04:27:22;16.97;;;8.83;;
19347;SDS011;9810;52.480;9.806;2022-08-19T04:29:51;10.83;;;7.57;;
19347;SDS011;9810;52.480;9.806;2022-08-19T04:32:19;9.97;;;7.60;;
19347;SDS011;9810;52.480;9.806;2022-08-19T04:34:47;11.07;;;8.40;;
19347;SDS011;9810;52.480;9.806;2022-08-19T04:37:15;11.80;;;8.33;;
19347;SDS011;9810;52.480;9.806;2022-08-19T04:39:42;12.20;;;8.27;;
19347;SDS011;9810;52.480;9.806;2022-08-19T04:42:25;11.40;;;7.57;;
19347;SDS011;9810;52.480;9.806;2022-08-19T04:45:07;13.47;;;8.43;;
19347;SDS011;9810;52.480;9.806;2022-08-19T04:47:37;12.47;;;8.33;;
19347;SDS011;9810;52.480;9.806;2022-08-19T04:50:05;13.70;;;8.30;;
19347;SDS011;9810;52.480;9.806;2022-08-19T04:52:34;14.40;;;9.20;;
19347;SDS011;9810;52.480;9.806;2022-08-19T04:55:01;17.67;;;9.17;;
19347;SDS011;9810;52.480;9.806;2022-08-19T04:57:31;14.17;;;8.97;;
19347;SDS011;9810;52.480;9.806;2022-08-19T04:59:58;9.23;;;8.03;;
19347;SDS011;9810;52.480;9.806;2022-08-19T05:02:27;15.37;;;9.27;;
19347;SDS011;9810;52.480;9.806;2022-08-19T05:04:56;13.70;;;8.57;;
19347;SDS011;9810;52.480;9.806;2022-08-19T05:07:25;13.97;;;8.70;;
19347;SDS011;9810;52.480;9.806;2022-08-19T05:09:54;13.77;;;8.90;;
19347;SDS011;9810;52.480;9.806;2022-08-19T05:12:21;13.37;;;8.77;;
19347;SDS011;9810;52.480;9.806;2022-08-19T05:14:49;17.00;;;9.60;;
19347;SDS011;9810;52.480;9.806;2022-08-19T05:17:16;14.07;;;8.50;;
19347;SDS011;9810;52.480;9.806;2022-08-19T05:19:45;14.73;;;8.30;;
19347;SDS011;9810;52.480;9.806;2022-08-19T05:22:30;12.03;;;8.27;;
19347;SDS011;9810;52.480;9.806;2022-08-19T05:25:03;16.50;;;8.87;;
19347;SDS011;9810;52.480;9.806;2022-08-19T05:27:31;14.00;;;8.97;;
19347;SDS011;9810;52.480;9.806;2022-08-19T05:29:59;13.50;;;8.83;;
19347;SDS011;9810;52.480;9.806;2022-08-19T05:32:27;15.87;;;9.80;;
19347;SDS011;9810;52.480;9.806;2022-08-19T05:34:56;15.60;;;8.90;;
19347;SDS011;9810;52.480;9.806;2022-08-19T05:37:23;21.50;;;10.30;;
19347;SDS011;9810;52.480;9.806;2022-08-19T05:39:52;12.27;;;8.27;;
19347;SDS011;9810;52.480;9.806;2022-08-19T05:42:20;16.97;;;9.50;;
19347;SDS011;9810;52.480;9.806;2022-08-19T05:44:49;15.40;;;9.40;;
19347;SDS011;9810;52.480;9.806;2022-08-19T05:47:17;12.23;;;8.83;;
19347;SDS011;9810;52.480;9.806;2022-08-19T05:49:45;16.15;;;11.20;;
19347;SDS011;9810;52.480;9.806;2022-08-19T05:52:14;18.23;;;10.00;;
19347;SDS011;9810;52.480;9.806;2022-08-19T05:54:42;15.20;;;9.50;;
19347;SDS011;9810;52.480;9.806;2022-08-19T05:57:13;13.43;;;8.87;;
19347;SDS011;9810;52.480;9.806;2022-08-19T05:59:40;16.57;;;8.67;;
19347;SDS011;9810;52.480;9.806;2022-08-19T06:02:08;12.60;;;8.50;;
19347;SDS011;9810;52.480;9.806;2022-08-19T06:04:36;11.43;;;8.03;;
19347;SDS011;9810;52.480;9.806;2022-08-19T06:07:04;14.60;;;8.57;;
19347;SDS011;9810;52.480;9.806;2022-08-19T06:12:20;12.30;;;8.33;;
19347;SDS011;9810;52.480;9.806;2022-08-19T06:14:51;15.37;;;8.33;;
19347;SDS011;9810;52.480;9.806;2022-08-19T06:17:19;12.67;;;8.40;;
19347;SDS011;9810;52.480;9.806;2022-08-19T06:19:50;12.03;;;8.10;;
19347;SDS011;9810;52.480;9.806;2022-08-19T06:22:17;10.97;;;8.63;;
19347;SDS011;9810;52.480;9.806;2022-08-19T06:24:44;10.30;;;7.90;;
19347;SDS011;9810;52.480;9.806;2022-08-19T06:27:13;11.40;;;8.27;;
19347;SDS011;9810;52.480;9.806;2022-08-19T06:29:41;13.77;;;8.43;;
19347;SDS011;9810;52.480;9.806;2022-08-19T06:32:08;15.77;;;10.47;;
19347;SDS011;9810;52.480;9.806;2022-08-19T06:34:36;14.13;;;9.07;;
19347;SDS011;9810;52.480;9.806;2022-08-19T06:37:04;18.97;;;10.00;;
19347;SDS011;9810;52.480;9.806;2022-08-19T06:39:33;13.93;;;8.87;;
19347;SDS011;9810;52.480;9.806;2022-08-19T06:42:02;13.80;;;8.77;;
19347;SDS011;9810;52.480;9.806;2022-08-19T06:44:35;14.30;;;8.90;;
19347;SDS011;9810;52.480;9.806;2022-08-19T06:47:05;14.67;;;9.60;;
19347;SDS011;9810;52.480;9.806;2022-08-19T06:49:34;16.23;;;9.57;;
19347;SDS011;9810;52.480;9.806;2022-08-19T06:52:02;15.00;;;8.83;;
19347;SDS011;9810;52.480;9.806;2022-08-19T06:54:30;13.80;;;8.27;;
19347;SDS011;9810;52.480;9.806;2022-08-19T06:56:58;14.83;;;9.30;;
19347;SDS011;9810;52.480;9.806;2022-08-19T06:59:28;9.83;;;7.60;;
19347;SDS011;9810;52.480;9.806;2022-08-19T07:02:00;13.67;;;8.27;;
19347;SDS011;9810;52.480;9.806;2022-08-19T07:04:31;14.30;;;8.27;;
19347;SDS011;9810;52.480;9.806;2022-08-19T07:07:01;16.57;;;9.30;;
19347;SDS011;9810;52.480;9.806;2022-08-19T07:09:33;14.60;;;7.90;;
19347;SDS011;9810;52.480;9.806;2022-08-19T07:12:02;14.77;;;7.77;;
19347;SDS011;9810;52.480;9.806;2022-08-19T07:14:33;10.20;;;7.70;;
19347;SDS011;9810;52.480;9.806;2022-08-19T07:17:05;10.50;;;7.77;;
19347;SDS011;9810;52.480;9.806;2022-08-19T07:19:33;9.17;;;7.37;;
19347;SDS011;9810;52.480;9.806;2022-08-19T07:22:04;14.07;;;8.70;;
19347;SDS011;9810;52.480;9.806;2022-08-19T07:24:47;14.80;;;8.20;;
19347;SDS011;9810;52.480;9.806;2022-08-19T07:27:15;11.00;;;7.10;;
19347;SDS011;9810;52.480;9.806;2022-08-19T07:29:42;14.27;;;8.87;;
19347;SDS011;9810;52.480;9.806;2022-08-19T07:32:12;11.87;;;7.20;;
19347;SDS011;9810;52.480;9.806;2022-08-19T07:34:39;11.13;;;7.40;;
19347;SDS011;9810;52.480;9.806;2022-08-19T07:37:06;12.97;;;8.33;;
19347;SDS011;9810;52.480;9.806;2022-08-19T07:39:35;11.53;;;7.73;;
19347;SDS011;9810;52.480;9.806;2022-08-19T07:42:05;10.50;;;7.73;;
19347;SDS011;9810;52.480;9.806;2022-08-19T07:44:36;11.53;;;8.73;;
19347;SDS011;9810;52.480;9.806;2022-08-19T07:47:04;15.70;;;9.57;;
19347;SDS011;9810;52.480;9.806;2022-08-19T07:49:33;15.00;;;9.47;;
19347;SDS011;9810;52.480;9.806;2022-08-19T07:52:02;17.37;;;9.40;;
19347;SDS011;9810;52.480;9.806;2022-08-19T07:54:32;11.13;;;9.07;;
19347;SDS011;9810;52.480;9.806;2022-08-19T07:57:02;12.97;;;9.70;;
19347;SDS011;9810;52.480;9.806;2022-08-19T07:59:30;14.32;;;9.07;;
19347;SDS011;9810;52.480;9.806;2022-08-19T08:02:02;8.60;;;7.70;;
19347;SDS011;9810;52.480;9.806;2022-08-19T08:04:30;13.73;;;8.83;;
19347;SDS011;9810;52.480;9.806;2022-08-19T08:07:16;11.10;;;7.30;;
19347;SDS011;9810;52.480;9.806;2022-08-19T08:10:03;11.17;;;8.30;;
19347;SDS011;9810;52.480;9.806;2022-08-19T08:12:33;7.90;;;6.38;;
19347;SDS011;9810;52.480;9.806;2022-08-19T08:15:09;7.87;;;7.07;;
19347;SDS011;9810;52.480;9.806;2022-08-19T08:17:41;10.60;;;6.60;;
19347;SDS011;9810;52.480;9.806;2022-08-19T08:20:12;11.80;;;6.83;;
19347;SDS011;9810;52.480;9.806;2022-08-19T08:22:42;8.67;;;5.90;;
19347;SDS011;9810;52.480;9.806;2022-08-19T08:25:27;9.30;;;6.20;;
19347;SDS011;9810;52.480;9.806;2022-08-19T08:27:56;6.80;;;5.53;;
19347;SDS011;9810;52.480;9.806;2022-08-19T08:30:26;6.97;;;5.90;;
19347;SDS011;9810;52.480;9.806;2022-08-19T08:32:55;10.20;;;5.83;;
19347;SDS011;9810;52.480;9.806;2022-08-19T08:35:24;7.93;;;6.80;;
19347;SDS011;9810;52.480;9.806;2022-08-19T08:37:52;11.10;;;7.57;;
19347;SDS011;9810;52.480;9.806;2022-08-19T08:40:22;8.60;;;5.60;;
19347;SDS011;9810;52.480;9.806;2022-08-19T08:42:57;7.90;;;5.68;;
19347;SDS011;9810;52.480;9.806;2022-08-19T08:45:29;5.70;;;4.95;;
19347;SDS011;9810;52.480;9.806;2022-08-19T08:48:00;10.40;;;5.88;;
19347;SDS011;9810;52.480;9.806;2022-08-19T08:50:33;10.07;;;5.10;;
19347;SDS011;9810;52.480;9.806;2022-08-19T08:53:06;8.73;;;5.47;;
19347;SDS011;9810;52.480;9.806;2022-08-19T08:55:35;9.23;;;5.93;;
19347;SDS011;9810;52.480;9.806;2022-08-19T08:58:03;9.05;;;6.07;;
19347;SDS011;9810;52.480;9.806;2022-08-19T09:00:33;6.60;;;5.18;;
19347;SDS011;9810;52.480;9.806;2022-08-19T09:03:03;6.43;;;4.88;;
19347;SDS011;9810;52.480;9.806;2022-08-19T09:05:39;6.50;;;5.32;;
19347;SDS011;9810;52.480;9.806;2022-08-19T09:08:17;5.82;;;4.85;;
19347;SDS011;9810;52.480;9.806;2022-08-19T09:10:52;6.00;;;4.40;;
19347;SDS011;9810;52.480;9.806;2022-08-19T09:16:10;7.97;;;4.88;;
19347;SDS011;9810;52.480;9.806;2022-08-19T09:18:42;10.77;;;6.00;;
19347;SDS011;9810;52.480;9.806;2022-08-19T09:21:12;9.73;;;5.85;;
19347;SDS011;9810;52.480;9.806;2022-08-19T09:23:40;6.22;;;5.28;;
19347;SDS011;9810;52.480;9.806;2022-08-19T09:26:08;6.70;;;5.75;;
19347;SDS011;9810;52.480;9.806;2022-08-19T09:28:38;8.05;;;5.65;;
19347;SDS011;9810;52.480;9.806;2022-08-19T09:31:06;10.20;;;5.57;;
19347;SDS011;9810;52.480;9.806;2022-08-19T09:33:33;6.72;;;5.85;;
19347;SDS011;9810;52.480;9.806;2022-08-19T09:36:01;10.20;;;6.50;;
19347;SDS011;9810;52.480;9.806;2022-08-19T09:38:31;9.40;;;5.55;;
19347;SDS011;9810;52.480;9.806;2022-08-19T09:41:02;8.25;;;5.47;;
19347;SDS011;9810;52.480;9.806;2022-08-19T09:43:31;7.55;;;5.25;;
19347;SDS011;9810;52.480;9.806;2022-08-19T09:46:01;7.30;;;5.03;;
19347;SDS011;9810;52.480;9.806;2022-08-19T09:48:30;6.60;;;5.55;;
19347;SDS011;9810;52.480;9.806;2022-08-19T09:51:02;5.15;;;4.43;;
19347;SDS011;9810;52.480;9.806;2022-08-19T09:53:33;4.72;;;4.03;;
19347;SDS011;9810;52.480;9.806;2022-08-19T09:56:00;5.60;;;4.63;;
19347;SDS011;9810;52.480;9.806;2022-08-19T09:58:28;6.80;;;5.15;;
19347;SDS011;9810;52.480;9.806;2022-08-19T10:00:56;6.82;;;4.10;;
19347;SDS011;9810;52.480;9.806;2022-08-19T10:03:25;5.88;;;4.22;;
19347;SDS011;9810;52.480;9.806;2022-08-19T10:05:53;5.65;;;4.15;;
19347;SDS011;9810;52.480;9.806;2022-08-19T10:08:22;6.53;;;3.85;;
19347;SDS011;9810;52.480;9.806;2022-08-19T10:10:52;4.45;;;3.28;;
19347;SDS011;9810;52.480;9.806;2022-08-19T10:13:22;6.55;;;3.92;;
19347;SDS011;9810;52.480;9.806;2022-08-19T10:15:51;5.55;;;4.28;;
19347;SDS011;9810;52.480;9.806;2022-08-19T10:18:20;4.15;;;3.53;;
19347;SDS011;9810;52.480;9.806;2022-08-19T10:20:49;5.05;;;3.92;;
19347;SDS011;9810;52.480;9.806;2022-08-19T10:23:19;6.05;;;4.22;;
19347;SDS011;9810;52.480;9.806;2022-08-19T10:25:47;8.70;;;3.72;;
19347;SDS011;9810;52.480;9.806;2022-08-19T10:28:18;6.45;;;4.20;;
19347;SDS011;9810;52.480;9.806;2022-08-19T10:30:45;6.65;;;4.25;;
19347;SDS011;9810;52.480;9.806;2022-08-19T10:33:13;5.07;;;3.95;;
19347;SDS011;9810;52.480;9.806;2022-08-19T10:35:40;4.97;;;4.20;;
19347;SDS011;9810;52.480;9.806;2022-08-19T10:38:06;7.18;;;4.20;;
19347;SDS011;9810;52.480;9.806;2022-08-19T10:40:34;4.68;;;4.22;;
19347;SDS011;9810;52.480;9.806;2022-08-19T10:43:01;5.50;;;3.55;;
19347;SDS011;9810;52.480;9.806;2022-08-19T10:45:30;5.68;;;3.70;;
19347;SDS011;9810;52.480;9.806;2022-08-19T10:47:57;8.68;;;4.93;;
19347;SDS011;9810;52.480;9.806;2022-08-19T10:50:24;5.22;;;4.72;;
19347;SDS011;9810;52.480;9.806;2022-08-19T10:53:09;3.70;;;3.40;;
19347;SDS011;9810;52.480;9.806;2022-08-19T10:55:36;4.22;;;3.50;;
19347;SDS011;9810;52.480;9.806;2022-08-19T10:58:21;4.93;;;3.63;;
19347;SDS011;9810;52.480;9.806;2022-08-19T11:00:53;6.43;;;3.00;;
19347;SDS011;9810;52.480;9.806;2022-08-19T11:03:21;2.88;;;2.60;;
19347;SDS011;9810;52.480;9.806;2022-08-19T11:05:56;6.85;;;3.45;;
19347;SDS011;9810;52.480;9.806;2022-08-19T11:08:24;4.40;;;3.47;;
19347;SDS011;9810;52.480;9.806;2022-08-19T11:10:52;3.38;;;2.42;;
19347;SDS011;9810;52.480;9.806;2022-08-19T11:13:21;5.10;;;3.08;;
19347;SDS011;9810;52.480;9.806;2022-08-19T11:15:57;6.15;;;2.88;;
19347;SDS011;9810;52.480;9.806;2022-08-19T11:18:24;3.58;;;2.63;;
19347;SDS011;9810;52.480;9.806;2022-08-19T11:20:52;4.40;;;3.38;;
19347;SDS011;9810;52.480;9.806;2022-08-19T11:23:19;3.80;;;3.25;;
19347;SDS011;9810;52.480;9.806;2022-08-19T11:25:47;6.75;;;3.53;;
19347;SDS011;9810;52.480;9.806;2022-08-19T11:28:15;3.83;;;3.42;;
19347;SDS011;9810;52.480;9.806;2022-08-19T11:30:42;4.93;;;3.80;;
19347;SDS011;9810;52.480;9.806;2022-08-19T11:33:11;4.35;;;3.65;;
19347;SDS011;9810;52.480;9.806;2022-08-19T11:35:39;4.30;;;3.20;;
19347;SDS011;9810;52.480;9.806;2022-08-19T11:38:06;6.45;;;3.28;;
19347;SDS011;9810;52.480;9.806;2022-08-19T11:40:33;4.78;;;3.60;;
19347;SDS011;9810;52.480;9.806;2022-08-19T11:43:01;4.22;;;3.70;;
19347;SDS011;9810;52.480;9.806;2022-08-19T11:45:29;4.75;;;2.83;;
19347;SDS011;9810;52.480;9.806;2022-08-19T11:47:57;4.57;;;3.85;;
19347;SDS011;9810;52.480;9.806;2022-08-19T11:50:26;3.50;;;3.20;;
19347;SDS011;9810;52.480;9.806;2022-08-19T11:52:54;3.78;;;2.63;;
19347;SDS011;9810;52.480;9.806;2022-08-19T11:55:22;3.38;;;2.72;;
19347;SDS011;9810;52.480;9.806;2022-08-19T11:57:49;3.72;;;2.78;;
19347;SDS011;9810;52.480;9.806;2022-08-19T12:00:16;3.38;;;2.80;;
19347;SDS011;9810;52.480;9.806;2022-08-19T12:02:44;3.50;;;2.70;;
19347;SDS011;9810;52.480;9.806;2022-08-19T12:05:14;3.20;;;2.58;;
19347;SDS011;9810;52.480;9.806;2022-08-19T12:07:44;6.05;;;2.35;;
19347;SDS011;9810;52.480;9.806;2022-08-19T12:10:11;3.80;;;2.63;;
19347;SDS011;9810;52.480;9.806;2022-08-19T12:12:40;3.30;;;2.22;;
19347;SDS011;9810;52.480;9.806;2022-08-19T12:15:08;2.10;;;1.90;;
19347;SDS011;9810;52.480;9.806;2022-08-19T12:17:38;4.30;;;2.08;;
19347;SDS011;9810;52.480;9.806;2022-08-19T12:20:07;3.63;;;2.15;;
19347;SDS011;9810;52.480;9.806;2022-08-19T12:22:38;3.97;;;2.20;;
19347;SDS011;9810;52.480;9.806;2022-08-19T12:25:09;2.42;;;2.22;;
19347;SDS011;9810;52.480;9.806;2022-08-19T12:27:37;3.97;;;1.83;;
19347;SDS011;9810;52.480;9.806;2022-08-19T12:30:05;3.13;;;2.45;;
19347;SDS011;9810;52.480;9.806;2022-08-19T12:32:34;3.03;;;2.72;;
19347;SDS011;9810;52.480;9.806;2022-08-19T12:35:02;1.88;;;1.73;;
19347;SDS011;9810;52.480;9.806;2022-08-19T12:37:29;3.10;;;2.40;;
19347;SDS011;9810;52.480;9.806;2022-08-19T12:39:58;3.38;;;2.25;;
19347;SDS011;9810;52.480;9.806;2022-08-19T12:42:27;4.05;;;2.40;;
19347;SDS011;9810;52.480;9.806;2022-08-19T12:44:55;3.40;;;2.33;;
19347;SDS011;9810;52.480;9.806;2022-08-19T12:47:23;2.22;;;2.03;;
19347;SDS011;9810;52.480;9.806;2022-08-19T12:49:52;4.80;;;2.40;;
19347;SDS011;9810;52.480;9.806;2022-08-19T12:52:22;2.60;;;2.38;;
19347;SDS011;9810;52.480;9.806;2022-08-19T12:54:52;2.42;;;2.22;;
19347;SDS011;9810;52.480;9.806;2022-08-19T12:57:21;2.85;;;2.10;;
19347;SDS011;9810;52.480;9.806;2022-08-19T12:59:51;3.78;;;2.40;;
19347;SDS011;9810;52.480;9.806;2022-08-19T13:02:20;2.42;;;2.22;;
19347;SDS011;9810;52.480;9.806;2022-08-19T13:04:47;2.15;;;2.03;;
19347;SDS011;9810;52.480;9.806;2022-08-19T13:07:15;5.55;;;2.83;;
19347;SDS011;9810;52.480;9.806;2022-08-19T13:09:42;2.60;;;2.00;;
19347;SDS011;9810;52.480;9.806;2022-08-19T13:12:09;3.03;;;2.30;;
19347;SDS011;9810;52.480;9.806;2022-08-19T13:14:38;4.22;;;2.03;;
19347;SDS011;9810;52.480;9.806;2022-08-19T13:17:07;3.60;;;1.75;;
19347;SDS011;9810;52.480;9.806;2022-08-19T13:19:36;2.30;;;2.10;;
19347;SDS011;9810;52.480;9.806;2022-08-19T13:22:05;4.65;;;2.38;;
19347;SDS011;9810;52.480;9.806;2022-08-19T13:24:32;2.20;;;1.85;;
19347;SDS011;9810;52.480;9.806;2022-08-19T13:27:03;1.58;;;1.48;;
19347;SDS011;9810;52.480;9.806;2022-08-19T13:29:33;2.22;;;1.70;;
19347;SDS011;9810;52.480;9.806;2022-08-19T13:32:19;3.20;;;1.63;;
19347;SDS011;9810;52.480;9.806;2022-08-19T13:35:04;2.17;;;1.60;;
19347;SDS011;9810;52.480;9.806;2022-08-19T13:37:32;5.13;;;1.85;;
19347;SDS011;9810;52.480;9.806;2022-08-19T13:40:16;2.15;;;1.83;;
19347;SDS011;9810;52.480;9.806;2022-08-19T13:42:48;3.45;;;2.30;;
19347;SDS011;9810;52.480;9.806;2022-08-19T13:45:17;2.38;;;1.90;;
19347;SDS011;9810;52.480;9.806;2022-08-19T13:47:49;2.42;;;1.40;;
19347;SDS011;9810;52.480;9.806;2022-08-19T13:50:20;3.63;;;1.90;;
19347;SDS011;9810;52.480;9.806;2022-08-19T13:52:50;1.92;;;1.80;;
19347;SDS011;9810;52.480;9.806;2022-08-19T13:55:18;1.90;;;1.80;;
19347;SDS011;9810;52.480;9.806;2022-08-19T13:57:45;2.28;;;1.65;;
19347;SDS011;9810;52.480;9.806;2022-08-19T14:00:17;1.95;;;1.70;;
19347;SDS011;9810;52.480;9.806;2022-08-19T14:02:45;5.00;;;1.50;;
19347;SDS011;9810;52.480;9.806;2022-08-19T14:05:15;1.65;;;1.55;;
19347;SDS011;9810;52.480;9.806;2022-08-19T14:07:43;4.30;;;1.95;;
19347;SDS011;9810;52.480;9.806;2022-08-19T14:10:11;2.40;;;1.77;;
19347;SDS011;9810;52.480;9.806;2022-08-19T14:12:39;1.70;;;1.60;;
19347;SDS011;9810;52.480;9.806;2022-08-19T14:15:08;1.55;;;1.35;;
19347;SDS011;9810;52.480;9.806;2022-08-19T14:17:37;1.58;;;1.48;;
19347;SDS011;9810;52.480;9.806;2022-08-19T14:20:05;2.75;;;1.65;;
19347;SDS011;9810;52.480;9.806;2022-08-19T14:22:37;5.32;;;1.58;;
19347;SDS011;9810;52.480;9.806;2022-08-19T14:25:07;2.17;;;1.50;;
19347;SDS011;9810;52.480;9.806;2022-08-19T14:27:37;2.40;;;1.42;;
19347;SDS011;9810;52.480;9.806;2022-08-19T14:30:06;3.13;;;1.40;;
19347;SDS011;9810;52.480;9.806;2022-08-19T14:32:40;1.65;;;1.48;;
19347;SDS011;9810;52.480;9.806;2022-08-19T14:35:08;1.38;;;1.25;;
19347;SDS011;9810;52.480;9.806;2022-08-19T14:37:39;1.65;;;1.55;;
19347;SDS011;9810;52.480;9.806;2022-08-19T14:40:08;2.08;;;1.30;;
19347;SDS011;9810;52.480;9.806;2022-08-19T14:42:36;1.15;;;1.15;;
19347;SDS011;9810;52.480;9.806;2022-08-19T14:45:04;3.67;;;1.58;;
19347;SDS011;9810;52.480;9.806;2022-08-19T14:47:33;1.40;;;1.20;;
19347;SDS011;9810;52.480;9.806;2022-08-19T14:49:59;3.50;;;1.00;;
19347;SDS011;9810;52.480;9.806;2022-08-19T14:52:27;3.05;;;1.80;;
19347;SDS011;9810;52.480;9.806;2022-08-19T14:54:56;2.67;;;0.95;;
19347;SDS011;9810;52.480;9.806;2022-08-19T14:57:23;1.42;;;0.95;;
19347;SDS011;9810;52.480;9.806;2022-08-19T14:59:51;1.58;;;1.13;;
19347;SDS011;9810;52.480;9.806;2022-08-19T15:02:18;1.63;;;1.17;;
19347;SDS011;9810;52.480;9.806;2022-08-19T15:04:45;1.30;;;0.80;;
19347;SDS011;9810;52.480;9.806;2022-08-19T15:07:12;1.13;;;1.02;;
19347;SDS011;9810;52.480;9.806;2022-08-19T15:09:39;1.33;;;1.23;;
19347;SDS011;9810;52.480;9.806;2022-08-19T15:12:08;1.17;;;1.08;;
19347;SDS011;9810;52.480;9.806;2022-08-19T15:14:35;1.55;;;1.13;;